createdAt,value
2022-10-13T07:51:58.082Z,2.55
2022-10-13T07:54:30.243Z,2.72
2022-10-13T07:56:58.389Z,3.80
2022-10-13T07:59:26.709Z,3.40
2022-10-13T08:01:54.752Z,3.80
2022-10-13T08:04:22.403Z,3.60
2022-10-13T08:06:50.015Z,3.17
2022-10-13T08:09:17.440Z,3.43
2022-10-13T08:11:45.627Z,3.63
2022-10-13T08:14:14.286Z,3.28
2022-10-13T08:16:48.691Z,3.15
2022-10-13T08:19:22.295Z,3.75
2022-10-13T08:21:58.113Z,3.57
2022-10-13T08:24:28.679Z,3.65
2022-10-13T08:26:56.695Z,3.60
2022-10-13T08:29:24.648Z,3.40
2022-10-13T08:31:54.359Z,2.90
2022-10-13T08:34:24.789Z,3.33
2022-10-13T08:36:54.893Z,3.15
2022-10-13T08:39:24.568Z,3.28
2022-10-13T08:41:53.518Z,3.22
2022-10-13T08:45:21.861Z,3.50
2022-10-13T08:47:37.881Z,2.73
2022-10-13T08:50:15.645Z,2.70
2022-10-13T08:52:50.607Z,2.45
2022-10-13T08:55:25.090Z,2.58
2022-10-13T08:57:53.316Z,3.83
2022-10-13T09:00:27.287Z,3.10
2022-10-13T09:03:02.100Z,2.78
2022-10-13T09:05:47.621Z,2.30
2022-10-13T09:08:21.109Z,2.38
2022-10-13T09:10:50.939Z,2.50
2022-10-13T09:13:22.960Z,2.30
2022-10-13T09:15:51.719Z,2.10
2022-10-13T09:18:19.611Z,2.10
2022-10-13T09:20:47.275Z,1.83
2022-10-13T09:23:14.660Z,2.00
2022-10-13T09:25:48.807Z,2.10
2022-10-13T09:28:30.603Z,2.25
2022-10-13T09:31:11.623Z,1.58
2022-10-13T09:33:41.852Z,1.80
2022-10-13T09:36:14.701Z,1.95
2022-10-13T09:39:05.663Z,2.20
2022-10-13T09:41:35.719Z,2.10
2022-10-13T09:44:12.975Z,2.38
2022-10-13T09:46:49.205Z,2.20
2022-10-13T09:49:38.297Z,2.50
2022-10-13T09:52:19.664Z,2.00
2022-10-13T09:54:52.305Z,2.10
2022-10-13T09:57:46.105Z,2.42
2022-10-13T10:00:14.953Z,2.60
2022-10-13T10:02:49.580Z,2.30
2022-10-13T10:05:26.653Z,2.30
2022-10-13T10:08:14.531Z,2.10
2022-10-13T10:10:42.986Z,2.50
2022-10-13T10:13:12.792Z,2.30
2022-10-13T10:15:57.353Z,2.40
2022-10-13T10:18:32.954Z,2.20
2022-10-13T10:21:11.063Z,2.00
2022-10-13T10:23:47.759Z,2.40
2022-10-13T10:26:30.232Z,1.77
2022-10-13T10:29:43.307Z,2.25
2022-10-13T10:32:41.047Z,2.20
2022-10-13T10:35:38.981Z,2.75
2022-10-13T10:38:35.825Z,1.88
2022-10-13T10:41:44.887Z,2.30
2022-10-13T10:44:29.964Z,2.33
2022-10-13T10:47:03.088Z,2.00
2022-10-13T10:49:36.730Z,1.75
2022-10-13T10:52:08.959Z,2.05
2022-10-13T10:54:52.234Z,1.80
2022-10-13T10:57:33.619Z,2.25
2022-10-13T11:00:13.960Z,1.47
2022-10-13T11:03:08.058Z,1.70
2022-10-13T11:06:00.199Z,1.60
2022-10-13T11:08:41.702Z,1.67
2022-10-13T11:11:29.267Z,1.40
2022-10-13T11:13:58.047Z,1.30
2022-10-13T11:16:38.419Z,1.10
2022-10-13T11:19:32.766Z,1.42
2022-10-13T11:22:03.250Z,1.05
2022-10-13T11:24:39.615Z,1.00
2022-10-13T11:27:14.711Z,1.10
2022-10-13T11:29:45.093Z,1.17
2022-10-13T11:32:42.197Z,0.70
2022-10-13T11:35:12.968Z,0.90
2022-10-13T11:38:09.261Z,0.85
2022-10-13T11:41:03.388Z,1.00
2022-10-13T11:43:45.118Z,0.85
2022-10-13T11:46:35.508Z,1.10
2022-10-13T11:49:18.805Z,0.63
2022-10-13T11:52:25.849Z,0.73
2022-10-13T11:55:10.904Z,0.90
2022-10-13T11:57:38.308Z,0.88
2022-10-13T12:00:13.435Z,0.80
2022-10-13T12:02:49.627Z,0.80
2022-10-13T12:05:28.455Z,0.80
2022-10-13T12:08:01.287Z,0.77
2022-10-13T12:10:35.788Z,0.65
2022-10-13T12:13:05.463Z,0.88
2022-10-13T12:15:37.020Z,0.95
2022-10-13T12:18:20.222Z,0.90
2022-10-13T12:20:55.926Z,0.83
2022-10-13T12:23:23.479Z,0.80
2022-10-13T12:25:57.421Z,0.90
2022-10-13T12:28:28.272Z,1.20
2022-10-13T12:30:58.455Z,0.90
2022-10-13T12:33:32.611Z,1.10
2022-10-13T12:36:20.190Z,1.10
2022-10-13T12:38:53.457Z,1.10
2022-10-13T12:41:35.944Z,0.60
2022-10-13T12:44:06.737Z,0.85
2022-10-13T12:46:49.467Z,0.77
2022-10-13T12:49:18.302Z,1.63
2022-10-13T12:51:48.593Z,0.80
2022-10-13T12:54:30.986Z,0.88
2022-10-13T12:57:02.330Z,1.00
2022-10-13T12:59:31.892Z,0.80
2022-10-13T13:02:02.347Z,0.98
2022-10-13T13:04:39.909Z,0.93
2022-10-13T13:07:28.788Z,1.08
2022-10-13T13:10:08.757Z,0.80
2022-10-13T13:12:37.556Z,0.87
2022-10-13T13:15:26.233Z,1.00
2022-10-13T13:17:59.247Z,1.10
2022-10-13T13:20:30.124Z,1.08
2022-10-13T13:22:57.871Z,0.90
2022-10-13T13:25:26.198Z,1.27
2022-10-13T13:27:56.945Z,1.20
2022-10-13T13:30:25.300Z,1.42
2022-10-13T13:32:52.784Z,1.25
2022-10-13T13:35:20.264Z,1.40
2022-10-13T13:37:50.885Z,1.40
2022-10-13T13:40:24.477Z,1.27
2022-10-13T13:42:56.313Z,1.00
2022-10-13T13:45:28.406Z,1.27
2022-10-13T13:48:00.781Z,1.10
2022-10-13T13:50:34.728Z,1.17
2022-10-13T13:53:02.517Z,1.05
2022-10-13T13:55:30.649Z,1.13
2022-10-13T13:57:58.979Z,0.85
2022-10-13T14:00:26.474Z,1.17
2022-10-13T14:02:59.471Z,1.30
2022-10-13T14:05:27.629Z,1.17
2022-10-13T14:07:59.356Z,1.13
2022-10-13T14:10:27.213Z,1.00
2022-10-13T14:12:54.684Z,1.40
2022-10-13T14:15:25.777Z,1.47
2022-10-13T14:17:56.513Z,1.40
2022-10-13T14:20:24.501Z,1.45
2022-10-13T14:22:51.959Z,1.38
2022-10-13T14:25:19.607Z,1.27
2022-10-13T14:27:47.273Z,1.40
2022-10-13T14:30:15.329Z,1.27
2022-10-13T14:32:43.069Z,1.40
2022-10-13T14:35:10.951Z,1.58
2022-10-13T14:37:39.259Z,1.63
2022-10-13T14:40:07.463Z,1.90
2022-10-13T14:42:34.900Z,1.73
2022-10-13T14:45:06.753Z,2.10
2022-10-13T14:47:34.320Z,2.22
2022-10-13T14:50:02.446Z,1.92
2022-10-13T14:52:30.189Z,1.97
2022-10-13T14:54:57.766Z,1.98
2022-10-13T14:57:25.323Z,1.85
2022-10-13T14:59:53.667Z,2.15
2022-10-13T15:02:22.430Z,1.90
2022-10-13T15:04:54.700Z,1.93
2022-10-13T15:07:22.535Z,1.98
2022-10-13T15:10:04.267Z,1.88
2022-10-13T15:12:33.395Z,2.38
2022-10-13T15:15:00.869Z,2.00
2022-10-13T15:17:31.191Z,1.70
2022-10-13T15:19:58.647Z,1.80
2022-10-13T15:22:29.005Z,2.00
2022-10-13T15:24:58.776Z,1.98
2022-10-13T15:27:26.185Z,1.70
2022-10-13T15:29:53.632Z,2.17
2022-10-13T15:32:22.048Z,2.30
2022-10-13T15:34:56.238Z,1.90
2022-10-13T15:37:25.454Z,2.00
2022-10-13T15:39:57.065Z,1.95
2022-10-13T15:42:25.087Z,2.87
2022-10-13T15:45:12.530Z,1.90
2022-10-13T15:47:40.033Z,1.77
2022-10-13T15:50:08.922Z,2.30
2022-10-13T15:52:43.934Z,2.00
2022-10-13T15:55:12.281Z,2.30
2022-10-13T15:57:40.759Z,2.13
2022-10-13T16:00:13.907Z,2.00
2022-10-13T16:02:43.269Z,2.35
2022-10-13T16:05:13.962Z,2.35
2022-10-13T16:07:41.901Z,2.50
2022-10-13T16:10:12.548Z,2.58
2022-10-13T16:12:40.234Z,2.55
2022-10-13T16:15:08.583Z,2.40
2022-10-13T16:17:36.430Z,2.17
2022-10-13T16:20:05.659Z,2.60
2022-10-13T16:22:33.353Z,2.40
2022-10-13T16:25:00.939Z,2.55
2022-10-13T16:27:28.466Z,2.72
2022-10-13T16:29:55.980Z,2.38
2022-10-13T16:32:23.511Z,2.90
2022-10-13T16:34:51.093Z,2.65
2022-10-13T16:37:20.567Z,3.30
2022-10-13T16:39:51.702Z,2.75
2022-10-13T16:42:19.824Z,2.78
2022-10-13T16:44:47.315Z,2.93
2022-10-13T16:47:18.209Z,2.83
2022-10-13T16:49:46.694Z,3.63
2022-10-13T16:52:15.972Z,2.85
2022-10-13T16:54:44.533Z,3.30
2022-10-13T16:57:12.376Z,3.07
2022-10-13T16:59:39.914Z,3.47
2022-10-13T17:02:07.331Z,3.60
2022-10-13T17:04:37.923Z,3.50
2022-10-13T17:07:05.346Z,3.58
2022-10-13T17:09:32.772Z,3.63
2022-10-13T17:12:00.780Z,2.97
2022-10-13T17:14:28.303Z,2.90
2022-10-13T17:16:57.998Z,2.95
2022-10-13T17:19:26.183Z,3.03
2022-10-13T17:21:53.644Z,3.60
2022-10-13T17:24:21.088Z,3.50
2022-10-13T17:26:49.856Z,3.78
2022-10-13T17:29:17.729Z,4.10
2022-10-13T17:31:45.918Z,4.40
2022-10-13T17:34:13.453Z,5.30
2022-10-13T17:36:40.862Z,3.92
2022-10-13T17:39:12.325Z,4.72
2022-10-13T17:41:43.486Z,4.75
2022-10-13T17:44:11.877Z,4.45
2022-10-13T17:46:39.998Z,5.60
2022-10-13T17:49:10.094Z,6.18
2022-10-13T17:51:38.195Z,6.18
2022-10-13T17:54:07.432Z,5.80
2022-10-13T17:56:36.603Z,5.80
2022-10-13T17:59:04.626Z,4.60
2022-10-13T18:01:34.456Z,4.28
2022-10-13T18:04:07.665Z,3.53
2022-10-13T18:06:40.764Z,3.22
2022-10-13T18:09:14.851Z,3.28
2022-10-13T18:11:49.811Z,2.77
2022-10-13T18:14:23.757Z,2.70
2022-10-13T18:16:52.605Z,3.03
2022-10-13T18:19:21.726Z,2.75
2022-10-13T18:21:49.604Z,2.50
2022-10-13T18:24:17.446Z,2.33
2022-10-13T18:26:46.297Z,2.97
2022-10-13T18:29:13.941Z,2.60
2022-10-13T18:31:41.880Z,2.35
2022-10-13T18:34:13.270Z,2.80
2022-10-13T18:36:44.342Z,3.40
2022-10-13T18:39:19.880Z,2.80
2022-10-13T18:41:49.781Z,2.40
2022-10-13T18:44:17.881Z,2.95
2022-10-13T18:46:45.573Z,4.00
2022-10-13T18:49:14.799Z,2.73
2022-10-13T18:51:43.777Z,2.63
2022-10-13T18:54:11.358Z,2.35
2022-10-13T18:56:39.315Z,2.33
2022-10-13T18:59:07.862Z,2.50
2022-10-13T19:01:38.190Z,2.40
2022-10-13T19:04:06.332Z,2.40
2022-10-13T19:06:34.108Z,2.40
2022-10-13T19:09:05.191Z,2.67
2022-10-13T19:11:36.453Z,2.30
2022-10-13T19:14:05.962Z,1.90
2022-10-13T19:16:36.873Z,2.63
2022-10-13T19:19:04.451Z,2.47
2022-10-13T19:21:32.938Z,2.42
2022-10-13T19:24:01.561Z,2.40
2022-10-13T19:26:37.552Z,1.83
2022-10-13T19:29:13.260Z,2.28
2022-10-13T19:31:41.887Z,1.98
2022-10-13T19:34:12.957Z,2.30
2022-10-13T19:36:43.522Z,2.35
2022-10-13T19:39:29.157Z,2.10
2022-10-13T19:42:00.520Z,1.83
2022-10-13T19:44:28.003Z,2.10
2022-10-13T19:46:55.489Z,1.98
2022-10-13T19:49:26.664Z,1.90
2022-10-13T19:51:56.752Z,2.47
2022-10-13T19:54:24.665Z,1.92
2022-10-13T19:56:55.360Z,1.65
2022-10-13T19:59:24.360Z,2.10
2022-10-13T20:01:51.812Z,2.10
2022-10-13T20:04:20.756Z,1.50
2022-10-13T20:06:49.771Z,2.17
2022-10-13T20:09:18.883Z,2.45
2022-10-13T20:11:50.072Z,2.13
2022-10-13T20:14:18.103Z,2.60
2022-10-13T20:16:45.622Z,2.20
2022-10-13T20:19:17.889Z,2.20
2022-10-13T20:21:48.211Z,1.80
2022-10-13T20:24:16.186Z,2.30
2022-10-13T20:26:43.755Z,2.40
2022-10-13T20:29:11.301Z,2.33
2022-10-13T20:31:39.040Z,2.95
2022-10-13T20:34:06.714Z,2.50
2022-10-13T20:36:38.610Z,2.78
2022-10-13T20:39:07.352Z,2.50
2022-10-13T20:41:35.071Z,2.87
2022-10-13T20:44:03.168Z,2.80
2022-10-13T20:46:34.381Z,2.83
2022-10-13T20:49:17.103Z,3.03
2022-10-13T20:51:45.217Z,2.47
2022-10-13T20:54:14.821Z,3.10
2022-10-13T20:56:45.781Z,3.45
2022-10-13T20:59:14.949Z,2.40
2022-10-13T21:01:42.656Z,2.15
2022-10-13T21:04:14.505Z,2.40
2022-10-13T21:06:42.568Z,2.27
2022-10-13T21:09:10.769Z,2.10
2022-10-13T21:11:40.913Z,2.40
2022-10-13T21:14:09.927Z,2.22
2022-10-13T21:16:40.454Z,2.75
2022-10-13T21:19:11.855Z,2.73
2022-10-13T21:21:39.393Z,2.60
2022-10-13T21:24:08.590Z,2.60
2022-10-13T21:26:37.127Z,2.35
2022-10-13T21:29:04.896Z,2.53
2022-10-13T21:31:34.432Z,2.77
2022-10-13T21:34:01.925Z,2.78
2022-10-13T21:36:31.926Z,2.90
2022-10-13T21:39:02.125Z,2.92
2022-10-13T21:41:30.099Z,3.00
2022-10-13T21:43:59.309Z,2.90
2022-10-13T21:46:33.023Z,3.00
2022-10-13T21:49:06.459Z,3.33
2022-10-13T21:51:38.123Z,3.17
2022-10-13T21:54:09.182Z,2.63
2022-10-13T21:56:37.714Z,2.87
2022-10-13T21:59:06.712Z,2.78
2022-10-13T22:01:37.312Z,2.55
2022-10-13T22:04:12.252Z,2.50
2022-10-13T22:06:40.008Z,2.40
2022-10-13T22:09:08.118Z,2.63
2022-10-13T22:11:37.302Z,3.05
2022-10-13T22:14:11.457Z,2.88
2022-10-13T22:16:45.789Z,3.10
2022-10-13T22:19:14.064Z,2.75
2022-10-13T22:21:44.372Z,2.67
2022-10-13T22:24:14.960Z,2.80
2022-10-13T22:26:43.855Z,3.15
2022-10-13T22:29:14.479Z,2.47
2022-10-13T22:31:43.601Z,2.90
2022-10-13T22:34:13.178Z,2.67
2022-10-13T22:36:44.430Z,3.03
2022-10-13T22:39:15.466Z,2.67
2022-10-13T22:41:43.105Z,2.67
2022-10-13T22:44:12.117Z,2.30
2022-10-13T22:46:40.736Z,2.70
2022-10-13T22:49:13.604Z,2.70
2022-10-13T22:51:41.147Z,2.63
2022-10-13T22:54:09.659Z,2.20
2022-10-13T22:56:37.277Z,2.35
2022-10-13T22:59:08.425Z,2.00
2022-10-13T23:01:36.583Z,2.30
2022-10-13T23:04:04.220Z,2.35
2022-10-13T23:06:34.702Z,2.22
2022-10-13T23:09:08.036Z,2.13
2022-10-13T23:11:36.147Z,2.20
2022-10-13T23:14:06.447Z,2.17
2022-10-13T23:16:34.426Z,2.65
2022-10-13T23:19:02.049Z,2.35
2022-10-13T23:21:30.892Z,2.22
2022-10-13T23:24:01.371Z,2.80
2022-10-13T23:26:30.149Z,2.15
2022-10-13T23:28:58.388Z,2.50
2022-10-13T23:31:27.871Z,1.85
2022-10-13T23:33:55.895Z,2.58
2022-10-13T23:36:27.332Z,3.20
2022-10-13T23:39:09.699Z,2.50
2022-10-13T23:41:37.801Z,2.40
2022-10-13T23:44:05.410Z,2.30
2022-10-13T23:46:32.914Z,3.00
2022-10-13T23:49:00.362Z,2.70
2022-10-13T23:51:27.866Z,2.75
2022-10-13T23:53:56.411Z,2.70
2022-10-13T23:56:24.351Z,2.33
2022-10-13T23:58:52.095Z,2.53
